createdAt,value
2023-04-19T00:00:01.537Z,2.21
2023-04-19T00:01:01.540Z,2.18
2023-04-19T00:02:01.759Z,2.18
2023-04-19T00:03:01.749Z,2.21
2023-04-19T00:04:01.798Z,2.18
2023-04-19T00:05:01.640Z,2.14
2023-04-19T00:06:01.658Z,2.16
2023-04-19T00:07:01.685Z,2.18
2023-04-19T00:08:01.671Z,2.19
2023-04-19T00:09:01.709Z,2.17
2023-04-19T00:10:01.729Z,2.16
2023-04-19T00:11:01.725Z,2.17
2023-04-19T00:12:01.781Z,2.19
2023-04-19T00:13:01.787Z,2.16
2023-04-19T00:14:01.924Z,2.16
2023-04-19T00:15:01.787Z,2.16
2023-04-19T00:16:01.893Z,2.17
2023-04-19T00:17:01.938Z,2.16
2023-04-19T00:18:01.979Z,2.13
2023-04-19T00:19:01.864Z,2.13
2023-04-19T00:20:01.906Z,2.11
2023-04-19T00:21:01.898Z,2.13
2023-04-19T00:22:01.936Z,2.12
2023-04-19T00:23:02.034Z,2.08
2023-04-19T00:24:01.989Z,2.10
2023-04-19T00:25:01.968Z,2.12
2023-04-19T00:26:02.032Z,2.12
2023-04-19T00:27:02.046Z,2.12
2023-04-19T00:28:02.112Z,2.12
2023-04-19T00:29:02.085Z,2.11
2023-04-19T00:30:02.055Z,2.10
2023-04-19T00:31:02.154Z,2.09
2023-04-19T00:32:02.110Z,2.12
2023-04-19T00:33:02.151Z,2.11
2023-04-19T00:34:02.162Z,2.10
2023-04-19T00:35:02.173Z,2.13
2023-04-19T00:36:02.178Z,2.07
2023-04-19T00:37:02.190Z,2.11
2023-04-19T00:38:02.283Z,2.06
2023-04-19T00:39:02.294Z,2.06
2023-04-19T00:40:02.258Z,2.07
2023-04-19T00:41:02.330Z,2.10
2023-04-19T00:42:02.357Z,2.12
2023-04-19T00:43:02.349Z,2.04
2023-04-19T00:44:02.383Z,2.09
2023-04-19T00:45:02.428Z,2.05
2023-04-19T00:46:02.501Z,2.07
2023-04-19T00:47:02.431Z,2.06
2023-04-19T00:48:02.511Z,2.05
2023-04-19T00:49:02.456Z,2.03
2023-04-19T00:50:02.478Z,2.01
2023-04-19T00:51:02.501Z,2.07
2023-04-19T00:52:02.531Z,2.04
2023-04-19T00:53:02.571Z,2.00
2023-04-19T00:54:02.550Z,2.06
2023-04-19T00:55:02.594Z,2.07
2023-04-19T00:56:02.599Z,2.01
2023-04-19T00:57:02.658Z,2.00
2023-04-19T00:58:02.620Z,2.00
2023-04-19T00:59:02.720Z,2.00
2023-04-19T01:00:02.661Z,2.01
2023-04-19T01:01:02.760Z,2.03
2023-04-19T01:02:02.831Z,2.01
2023-04-19T01:03:03.031Z,2.01
2023-04-19T01:04:02.792Z,1.99
2023-04-19T01:05:02.787Z,2.02
2023-04-19T01:06:02.798Z,1.99
2023-04-19T01:07:02.853Z,1.98
2023-04-19T01:08:02.869Z,2.00
2023-04-19T01:09:02.903Z,2.05
2023-04-19T01:10:02.873Z,2.04
2023-04-19T01:11:02.924Z,1.98
2023-04-19T01:12:02.913Z,1.99
2023-04-19T01:13:02.983Z,2.00
2023-04-19T01:14:03.030Z,2.01
2023-04-19T01:15:02.999Z,2.00
2023-04-19T01:16:03.050Z,2.01
2023-04-19T01:17:03.027Z,2.00
2023-04-19T01:18:03.102Z,1.98
2023-04-19T01:19:03.088Z,1.96
2023-04-19T01:20:03.110Z,1.95
2023-04-19T01:21:03.146Z,1.97
2023-04-19T01:22:03.163Z,1.95
2023-04-19T01:23:03.184Z,1.98
2023-04-19T01:24:03.245Z,1.94
2023-04-19T01:25:03.217Z,1.91
2023-04-19T01:26:03.247Z,1.93
2023-04-19T01:27:03.315Z,1.95
2023-04-19T01:28:03.308Z,1.92
2023-04-19T01:29:03.340Z,1.93
2023-04-19T01:30:03.385Z,1.95
2023-04-19T01:31:03.407Z,1.96
2023-04-19T01:32:03.423Z,1.95
2023-04-19T01:33:03.470Z,1.93
2023-04-19T01:34:03.493Z,1.90
2023-04-19T01:35:03.458Z,1.92
2023-04-19T01:36:03.500Z,1.93
2023-04-19T01:37:03.519Z,1.96
2023-04-19T01:38:03.545Z,1.92
2023-04-19T01:39:03.606Z,1.91
2023-04-19T01:40:03.591Z,1.90
2023-04-19T01:41:03.670Z,1.91
2023-04-19T01:42:03.672Z,1.90
2023-04-19T01:43:03.695Z,1.87
2023-04-19T01:44:03.724Z,1.91
2023-04-19T01:45:03.735Z,1.89
2023-04-19T01:46:03.783Z,1.87
2023-04-19T01:47:03.894Z,1.87
2023-04-19T01:48:03.889Z,1.90
2023-04-19T01:49:03.850Z,1.93
2023-04-19T01:50:03.890Z,1.91
2023-04-19T01:51:03.892Z,1.89
2023-04-19T01:52:03.894Z,1.90
2023-04-19T01:53:03.928Z,1.91
2023-04-19T01:54:03.956Z,1.87
2023-04-19T01:55:03.961Z,1.91
2023-04-19T01:56:03.991Z,1.86
2023-04-19T01:57:04.027Z,1.84
2023-04-19T01:58:04.052Z,1.90
2023-04-19T01:59:04.110Z,1.90
2023-04-19T02:00:04.110Z,1.87
2023-04-19T02:01:04.126Z,1.88
2023-04-19T02:02:04.214Z,1.86
2023-04-19T02:03:04.338Z,1.87
2023-04-19T02:04:04.272Z,1.88
2023-04-19T02:05:04.210Z,1.88
2023-04-19T02:06:04.235Z,1.86
2023-04-19T02:07:04.265Z,1.84
2023-04-19T02:08:04.287Z,1.83
2023-04-19T02:09:04.342Z,1.84
2023-04-19T02:10:04.326Z,1.88
2023-04-19T02:11:04.357Z,1.80
2023-04-19T02:12:04.366Z,1.84
2023-04-19T02:13:04.417Z,1.81
2023-04-19T02:14:04.488Z,1.82
2023-04-19T02:15:04.441Z,1.83
2023-04-19T02:16:04.481Z,1.84
2023-04-19T02:17:04.508Z,1.84
2023-04-19T02:18:04.558Z,1.83
2023-04-19T02:19:04.557Z,1.80
2023-04-19T02:20:04.574Z,1.82
2023-04-19T02:21:04.583Z,1.83
2023-04-19T02:22:04.621Z,1.83
2023-04-19T02:23:04.663Z,1.82
2023-04-19T02:24:04.646Z,1.84
2023-04-19T02:25:04.689Z,1.82
2023-04-19T02:26:04.708Z,1.81
2023-04-19T02:27:04.727Z,1.83
2023-04-19T02:28:04.756Z,1.85
2023-04-19T02:29:06.755Z,1.83
2023-04-19T02:30:04.808Z,1.79
2023-04-19T02:31:04.852Z,1.80
2023-04-19T02:32:04.909Z,1.80
2023-04-19T02:33:04.931Z,1.81
2023-04-19T02:34:04.942Z,1.80
2023-04-19T02:35:04.945Z,1.81
2023-04-19T02:36:04.957Z,1.80
2023-04-19T02:37:05.008Z,1.80
2023-04-19T02:38:05.006Z,1.77
2023-04-19T02:39:05.066Z,1.77
2023-04-19T02:40:05.058Z,1.80
2023-04-19T02:41:05.082Z,1.81
2023-04-19T02:42:05.089Z,1.80
2023-04-19T02:43:05.148Z,1.77
2023-04-19T02:44:05.161Z,1.79
2023-04-19T02:45:05.158Z,1.76
2023-04-19T02:46:05.291Z,1.77
2023-04-19T02:47:05.253Z,1.79
2023-04-19T02:48:05.301Z,1.79
2023-04-19T02:49:05.267Z,1.78
2023-04-19T02:50:05.289Z,1.77
2023-04-19T02:51:05.307Z,1.77
2023-04-19T02:52:05.317Z,1.78
2023-04-19T02:53:05.369Z,1.74
2023-04-19T02:54:05.373Z,1.79
2023-04-19T02:55:05.446Z,1.76
2023-04-19T02:56:05.416Z,1.75
2023-04-19T02:57:05.480Z,1.77
2023-04-19T02:58:05.479Z,1.75
2023-04-19T02:59:05.557Z,1.75
2023-04-19T03:00:05.524Z,1.77
2023-04-19T03:01:05.567Z,1.76
2023-04-19T03:02:05.573Z,1.74
2023-04-19T03:03:05.849Z,1.73
2023-04-19T03:04:05.652Z,1.75
2023-04-19T03:05:05.767Z,1.72
2023-04-19T03:06:05.674Z,1.76
2023-04-19T03:07:05.713Z,1.72
2023-04-19T03:08:05.745Z,1.75
2023-04-19T03:09:05.786Z,1.71
2023-04-19T03:10:05.777Z,1.76
2023-04-19T03:11:05.824Z,1.75
2023-04-19T03:12:05.857Z,1.75
2023-04-19T03:13:05.875Z,1.72
2023-04-19T03:14:05.956Z,1.71
2023-04-19T03:15:05.945Z,1.72
2023-04-19T03:16:06.021Z,1.72
2023-04-19T03:17:05.998Z,1.72
2023-04-19T03:18:06.018Z,1.72
2023-04-19T03:19:06.103Z,1.72
2023-04-19T03:20:06.093Z,1.74
2023-04-19T03:21:06.130Z,1.73
2023-04-19T03:22:06.150Z,1.71
2023-04-19T03:23:06.185Z,1.72
2023-04-19T03:24:06.263Z,1.72
2023-04-19T03:25:06.267Z,1.68
2023-04-19T03:26:06.287Z,1.71
2023-04-19T03:27:06.310Z,1.70
2023-04-19T03:28:06.316Z,1.67
2023-04-19T03:29:06.380Z,1.67
2023-04-19T03:30:06.380Z,1.71
2023-04-19T03:31:06.487Z,1.70
2023-04-19T03:32:06.418Z,1.68
2023-04-19T03:33:06.469Z,1.71
2023-04-19T03:34:06.543Z,1.68
2023-04-19T03:35:06.511Z,1.67
2023-04-19T03:36:06.557Z,1.67
2023-04-19T03:37:06.562Z,1.65
2023-04-19T03:38:06.591Z,1.66
2023-04-19T03:39:06.675Z,1.67
2023-04-19T03:40:06.778Z,1.69
2023-04-19T03:41:06.839Z,1.72
2023-04-19T03:42:06.706Z,1.69
2023-04-19T03:43:06.809Z,1.67
2023-04-19T03:44:06.776Z,1.65
2023-04-19T03:45:06.852Z,1.65
2023-04-19T03:46:06.985Z,1.65
2023-04-19T03:47:06.877Z,1.66
2023-04-19T03:48:06.949Z,1.62
2023-04-19T03:49:06.932Z,1.65
2023-04-19T03:50:07.005Z,1.64
2023-04-19T03:51:07.001Z,1.63
2023-04-19T03:52:07.020Z,1.64
2023-04-19T03:53:07.043Z,1.64
2023-04-19T03:54:07.122Z,1.62
2023-04-19T03:55:07.136Z,1.63
2023-04-19T03:56:07.158Z,1.68
2023-04-19T03:57:07.218Z,1.65
2023-04-19T03:58:07.273Z,1.63
2023-04-19T03:59:07.260Z,1.59
2023-04-19T04:00:07.282Z,1.61
2023-04-19T04:01:07.306Z,1.61
2023-04-19T04:02:07.459Z,1.63
2023-04-19T04:03:07.624Z,1.60
2023-04-19T04:04:07.559Z,1.59
2023-04-19T04:05:07.712Z,1.59
2023-04-19T04:06:07.484Z,1.59
2023-04-19T04:07:07.521Z,1.62
2023-04-19T04:08:07.544Z,1.61
2023-04-19T04:09:07.704Z,1.63
2023-04-19T04:10:07.603Z,1.62
2023-04-19T04:11:07.699Z,1.64
2023-04-19T04:12:07.665Z,1.59
2023-04-19T04:13:07.725Z,1.59
2023-04-19T04:14:07.787Z,1.60
2023-04-19T04:15:07.757Z,1.59
2023-04-19T04:16:07.821Z,1.59
2023-04-19T04:17:07.854Z,1.58
2023-04-19T04:18:09.241Z,1.61
2023-04-19T04:19:07.920Z,1.56
2023-04-19T04:20:07.955Z,1.60
2023-04-19T04:21:07.981Z,1.58
2023-04-19T04:22:07.981Z,1.60
2023-04-19T04:23:08.009Z,1.54
2023-04-19T04:24:08.113Z,1.58
2023-04-19T04:25:08.086Z,1.57
2023-04-19T04:26:08.117Z,1.57
2023-04-19T04:27:08.130Z,1.59
2023-04-19T04:28:08.168Z,1.58
2023-04-19T04:29:08.272Z,1.56
2023-04-19T04:30:08.234Z,1.58
2023-04-19T04:31:08.243Z,1.53
2023-04-19T04:32:08.398Z,1.55
2023-04-19T04:33:08.320Z,1.55
2023-04-19T04:34:08.386Z,1.52
2023-04-19T04:35:08.387Z,1.57
2023-04-19T04:36:09.821Z,1.57
2023-04-19T04:37:08.465Z,1.56
2023-04-19T04:38:21.460Z,1.54
2023-04-19T04:39:10.037Z,1.54
2023-04-19T04:40:08.495Z,1.55
2023-04-19T04:41:08.476Z,1.55
2023-04-19T04:42:08.474Z,1.53
2023-04-19T04:43:08.485Z,1.53
2023-04-19T04:44:12.030Z,1.57
2023-04-19T04:45:08.459Z,1.57
2023-04-19T04:46:08.488Z,1.57
2023-04-19T04:47:08.461Z,1.57
2023-04-19T04:48:08.464Z,1.52
2023-04-19T04:49:08.452Z,1.56
2023-04-19T04:50:08.501Z,1.55
2023-04-19T04:51:08.469Z,1.57
2023-04-19T04:52:08.392Z,1.55
2023-04-19T04:53:08.395Z,1.54
2023-04-19T04:54:08.454Z,1.54
2023-04-19T04:55:08.397Z,1.54
2023-04-19T04:56:08.403Z,1.55
2023-04-19T04:57:08.367Z,1.54
2023-04-19T04:58:08.367Z,1.52
2023-04-19T04:59:08.409Z,1.53
2023-04-19T05:00:08.401Z,1.50
2023-04-19T05:01:08.412Z,1.52
2023-04-19T05:02:08.427Z,1.51
2023-04-19T05:03:08.521Z,1.52
2023-04-19T05:04:08.395Z,1.49
2023-04-19T05:05:08.318Z,1.52
2023-04-19T05:06:08.379Z,1.52
2023-04-19T05:07:08.320Z,1.49
2023-04-19T05:08:08.322Z,1.50
2023-04-19T05:09:08.329Z,1.47
2023-04-19T05:10:08.328Z,1.49
2023-04-19T05:11:08.286Z,1.49
2023-04-19T05:12:08.264Z,1.49
2023-04-19T05:13:08.312Z,1.50
2023-04-19T05:14:08.374Z,1.49
2023-04-19T05:15:08.395Z,1.49
2023-04-19T05:16:08.590Z,1.49
2023-04-19T05:17:08.467Z,1.49
2023-04-19T05:18:08.539Z,1.50
2023-04-19T05:19:08.559Z,1.49
2023-04-19T05:20:08.572Z,1.46
2023-04-19T05:21:08.600Z,1.48
2023-04-19T05:22:08.634Z,1.49
2023-04-19T05:23:09.635Z,1.48
2023-04-19T05:24:08.754Z,1.47
2023-04-19T05:25:08.771Z,1.46
2023-04-19T05:26:08.874Z,1.47
2023-04-19T05:27:08.814Z,1.46
2023-04-19T05:28:08.875Z,1.47
2023-04-19T05:29:08.898Z,1.45
2023-04-19T05:30:08.931Z,1.46
2023-04-19T05:31:08.978Z,1.44
2023-04-19T05:32:09.035Z,1.46
2023-04-19T05:33:09.141Z,1.48
2023-04-19T05:34:09.036Z,1.49
2023-04-19T05:35:09.185Z,1.46
2023-04-19T05:36:09.136Z,1.47
2023-04-19T05:37:09.118Z,1.47
2023-04-19T05:38:09.175Z,1.53
2023-04-19T05:39:09.219Z,1.59
2023-04-19T05:40:09.264Z,1.63
2023-04-19T05:41:09.239Z,1.71
2023-04-19T05:42:09.234Z,1.79
2023-04-19T05:43:09.388Z,1.89
2023-04-19T05:44:09.551Z,1.95
2023-04-19T05:45:09.359Z,2.11
2023-04-19T05:46:09.329Z,2.19
2023-04-19T05:47:09.369Z,2.25
2023-04-19T05:48:09.402Z,2.44
2023-04-19T05:49:09.332Z,2.42
2023-04-19T05:50:09.365Z,2.59
2023-04-19T05:51:09.370Z,2.82
2023-04-19T05:52:09.403Z,2.87
2023-04-19T05:53:09.406Z,3.00
2023-04-19T05:54:09.563Z,3.17
2023-04-19T05:55:09.548Z,3.23
2023-04-19T05:56:10.032Z,3.47
2023-04-19T05:57:09.477Z,3.70
2023-04-19T05:58:09.524Z,3.81
2023-04-19T05:59:09.566Z,4.14
2023-04-19T06:00:09.480Z,4.55
2023-04-19T06:01:09.482Z,4.54
2023-04-19T06:02:09.598Z,4.91
2023-04-19T06:03:09.652Z,5.10
2023-04-19T06:04:09.559Z,5.29
2023-04-19T06:05:10.620Z,5.48
2023-04-19T06:06:09.509Z,5.66
2023-04-19T06:07:22.385Z,5.80
2023-04-19T06:08:10.501Z,5.81
2023-04-19T06:09:09.479Z,5.87
2023-04-19T06:10:10.036Z,6.00
2023-04-19T06:11:20.199Z,6.23
2023-04-19T06:12:10.463Z,5.84
2023-04-19T06:13:09.457Z,5.99
2023-04-19T06:14:09.460Z,6.27
2023-04-19T06:15:09.453Z,6.82
2023-04-19T06:16:09.518Z,7.55
2023-04-19T06:17:09.540Z,7.85
2023-04-19T06:18:09.456Z,8.31
2023-04-19T06:19:09.415Z,8.40
2023-04-19T06:20:09.404Z,8.69
2023-04-19T06:21:09.392Z,8.93
2023-04-19T06:22:09.412Z,9.03
2023-04-19T06:23:09.466Z,9.12
2023-04-19T06:24:09.406Z,9.31
2023-04-19T06:25:09.582Z,9.73
2023-04-19T06:26:09.467Z,9.97
2023-04-19T06:27:09.561Z,10.12
2023-04-19T06:28:09.402Z,10.20
2023-04-19T06:29:09.363Z,10.27
2023-04-19T06:30:09.350Z,10.13
2023-04-19T06:31:09.419Z,10.23
2023-04-19T06:32:09.381Z,10.32
2023-04-19T06:33:09.351Z,10.50
2023-04-19T06:34:09.363Z,10.78
2023-04-19T06:35:09.333Z,11.84
2023-04-19T06:36:09.320Z,12.17
2023-04-19T06:37:09.313Z,13.85
2023-04-19T06:38:09.320Z,15.09
2023-04-19T06:39:09.324Z,16.18
2023-04-19T06:40:09.288Z,18.13
2023-04-19T06:41:09.329Z,19.39
2023-04-19T06:42:09.278Z,22.96
2023-04-19T06:43:09.311Z,27.29
2023-04-19T06:44:09.566Z,30.12
2023-04-19T06:45:09.238Z,32.49
2023-04-19T06:46:09.277Z,33.27
2023-04-19T06:47:09.270Z,34.69
2023-04-19T06:48:09.316Z,35.21
2023-04-19T06:49:09.393Z,34.83
2023-04-19T06:50:09.392Z,35.22
2023-04-19T06:51:09.436Z,34.80
2023-04-19T06:52:09.479Z,34.45
2023-04-19T06:53:09.803Z,34.93
2023-04-19T06:54:09.595Z,35.50
2023-04-19T06:55:09.658Z,35.52
2023-04-19T06:56:09.684Z,36.11
2023-04-19T06:57:09.910Z,38.04
2023-04-19T06:58:09.807Z,36.09
2023-04-19T06:59:09.834Z,37.89
2023-04-19T07:00:09.891Z,39.88
2023-04-19T07:01:09.944Z,40.53
2023-04-19T07:02:10.046Z,39.34
2023-04-19T07:03:10.145Z,39.07
2023-04-19T07:04:10.435Z,38.38
2023-04-19T07:05:10.144Z,39.46
2023-04-19T07:06:10.165Z,39.55
2023-04-19T07:07:10.260Z,39.75
2023-04-19T07:08:10.256Z,39.65
2023-04-19T07:09:10.586Z,38.55
2023-04-19T07:10:10.377Z,37.38
2023-04-19T07:11:10.387Z,38.07
2023-04-19T07:12:10.412Z,38.40
2023-04-19T07:13:10.465Z,39.11
2023-04-19T07:14:10.479Z,39.17
2023-04-19T07:15:10.550Z,39.69
2023-04-19T07:16:10.622Z,39.84
2023-04-19T07:17:10.588Z,39.13
2023-04-19T07:18:10.660Z,39.26
2023-04-19T07:19:11.078Z,38.88
2023-04-19T07:20:10.709Z,39.65
2023-04-19T07:21:10.862Z,39.37
2023-04-19T07:22:11.068Z,39.29
2023-04-19T07:23:10.760Z,40.27
2023-04-19T07:24:10.799Z,41.15
2023-04-19T07:25:10.805Z,56.75
2023-04-19T07:26:10.930Z,49.69
2023-04-19T07:27:10.841Z,44.95
2023-04-19T07:28:10.861Z,43.19
2023-04-19T07:29:10.912Z,43.69
2023-04-19T07:30:10.868Z,41.84
2023-04-19T07:31:10.876Z,41.62
2023-04-19T07:32:10.922Z,52.61
2023-04-19T07:33:10.916Z,45.93
2023-04-19T07:34:10.901Z,44.04
2023-04-19T07:35:11.089Z,43.66
2023-04-19T07:36:10.933Z,40.73
2023-04-19T07:37:13.590Z,27.12
2023-04-19T07:38:11.171Z,22.45
2023-04-19T07:39:11.575Z,19.76
2023-04-19T07:40:11.778Z,16.57
2023-04-19T07:41:11.203Z,12.59
2023-04-19T07:42:11.247Z,9.39
2023-04-19T07:43:11.280Z,8.51
2023-04-19T07:44:11.374Z,7.17
2023-04-19T07:45:11.702Z,6.42
2023-04-19T07:46:11.474Z,6.87
2023-04-19T07:47:11.455Z,6.95
2023-04-19T07:48:11.660Z,7.09
2023-04-19T07:49:11.693Z,7.36
2023-04-19T07:50:12.186Z,7.21
2023-04-19T07:51:11.695Z,7.74
2023-04-19T07:52:11.743Z,7.94
2023-04-19T07:53:12.626Z,8.14
2023-04-19T07:54:11.837Z,8.08
2023-04-19T07:55:11.807Z,7.59
2023-04-19T07:56:13.023Z,7.49
2023-04-19T07:57:11.887Z,7.62
2023-04-19T07:58:11.911Z,7.75
2023-04-19T07:59:11.936Z,7.67
2023-04-19T08:00:11.972Z,7.71
2023-04-19T08:01:12.003Z,7.81
2023-04-19T08:02:12.096Z,7.83
2023-04-19T08:03:12.275Z,8.04
2023-04-19T08:04:12.302Z,7.98
2023-04-19T08:05:12.221Z,8.18
2023-04-19T08:06:12.061Z,8.10
2023-04-19T08:07:12.070Z,8.43
2023-04-19T08:08:12.080Z,8.37
2023-04-19T08:09:12.156Z,8.46
2023-04-19T08:10:12.193Z,8.51
2023-04-19T08:11:12.151Z,8.55
2023-04-19T08:12:17.199Z,8.80
2023-04-19T08:13:13.147Z,8.81
2023-04-19T08:14:25.967Z,8.83
2023-04-19T08:15:29.619Z,8.82
2023-04-19T08:17:25.713Z,8.85
2023-04-19T08:18:13.149Z,8.86
2023-04-19T08:19:12.090Z,9.00
2023-04-19T08:20:12.621Z,9.10
2023-04-19T08:21:12.099Z,9.22
2023-04-19T08:22:12.110Z,9.08
2023-04-19T08:23:22.409Z,9.16
2023-04-19T08:24:13.136Z,9.24
2023-04-19T08:25:12.150Z,9.41
2023-04-19T08:26:12.044Z,9.42
2023-04-19T08:27:12.045Z,8.88
2023-04-19T08:28:12.041Z,9.28
2023-04-19T08:29:12.119Z,8.88
2023-04-19T08:30:12.050Z,8.50
2023-04-19T08:31:12.084Z,8.18
2023-04-19T08:32:12.131Z,8.16
2023-04-19T08:33:12.098Z,8.19
2023-04-19T08:34:12.020Z,8.04
2023-04-19T08:35:12.010Z,7.95
2023-04-19T08:36:13.738Z,7.72
2023-04-19T08:37:12.598Z,7.79
2023-04-19T08:38:11.990Z,7.49
2023-04-19T08:39:24.872Z,7.24
2023-04-19T08:40:13.138Z,7.25
2023-04-19T08:41:11.999Z,7.19
2023-04-19T08:42:28.203Z,6.62
2023-04-19T08:43:12.968Z,7.04
2023-04-19T08:44:11.975Z,6.87
2023-04-19T08:45:26.898Z,6.61
2023-04-19T08:46:13.151Z,6.83
2023-04-19T08:47:20.202Z,6.32
2023-04-19T08:48:15.679Z,5.75
2023-04-19T08:49:11.959Z,4.94
2023-04-19T08:51:13.003Z,4.16
2023-04-19T08:52:11.892Z,3.51
2023-04-19T08:54:11.897Z,3.22
2023-04-19T08:55:12.619Z,2.95
2023-04-19T08:56:20.695Z,3.06
2023-04-19T08:57:12.852Z,3.07
2023-04-19T08:58:18.916Z,3.08
2023-04-19T08:59:18.555Z,3.07
2023-04-19T09:00:13.083Z,3.07
2023-04-19T09:01:19.836Z,3.12
2023-04-19T09:02:12.945Z,3.08
2023-04-19T09:03:12.665Z,3.16
2023-04-19T09:05:12.912Z,3.09
2023-04-19T09:06:12.385Z,3.19
2023-04-19T09:07:11.796Z,3.41
2023-04-19T09:08:13.982Z,3.86
2023-04-19T09:09:16.883Z,4.46
2023-04-19T09:10:12.947Z,3.10
2023-04-19T09:11:11.949Z,3.26
2023-04-19T09:12:11.907Z,3.58
2023-04-19T09:13:11.906Z,4.10
2023-04-19T09:14:11.903Z,4.93
2023-04-19T09:15:11.910Z,4.98
2023-04-19T09:16:11.928Z,5.77
2023-04-19T09:17:11.875Z,5.80
2023-04-19T09:18:11.867Z,5.62
2023-04-19T09:19:23.544Z,5.78
2023-04-19T09:20:12.874Z,5.80
2023-04-19T09:21:11.847Z,5.87
2023-04-19T09:22:11.848Z,5.95
2023-04-19T09:23:11.825Z,6.10
2023-04-19T09:24:11.827Z,6.39
2023-04-19T09:27:11.821Z,6.35
2023-04-19T09:28:11.789Z,6.34
2023-04-19T09:29:13.782Z,6.24
2023-04-19T09:30:20.690Z,6.31
2023-04-19T09:31:30.340Z,6.34
2023-04-19T09:32:12.805Z,6.35
2023-04-19T09:33:11.866Z,6.22
2023-04-19T09:34:11.783Z,6.18
2023-04-19T09:35:12.112Z,5.91
2023-04-19T09:36:13.663Z,5.49
2023-04-19T09:37:15.727Z,5.39
2023-04-19T09:38:12.740Z,5.58
2023-04-19T09:39:11.725Z,5.06
2023-04-19T09:40:11.750Z,4.87
2023-04-19T09:41:11.789Z,4.66
2023-04-19T09:42:11.711Z,4.59
2023-04-19T09:45:29.008Z,4.42
2023-04-19T09:46:13.139Z,4.46
2023-04-19T09:47:11.893Z,4.27
2023-04-19T09:48:11.802Z,4.19
2023-04-19T09:49:21.204Z,4.09
2023-04-19T09:50:21.993Z,4.21
2023-04-19T09:51:14.728Z,4.35
2023-04-19T09:52:11.728Z,4.22
2023-04-19T09:53:11.694Z,3.93
2023-04-19T09:54:11.732Z,3.84
2023-04-19T09:55:24.962Z,3.73
2023-04-19T09:56:13.136Z,3.85
2023-04-19T09:57:11.702Z,3.55
2023-04-19T09:58:11.674Z,3.49
2023-04-19T09:59:20.222Z,3.44
2023-04-19T10:00:13.611Z,3.55
2023-04-19T10:01:15.785Z,3.40
2023-04-19T10:02:11.743Z,3.55
2023-04-19T10:03:11.672Z,3.36
2023-04-19T10:04:25.825Z,3.28
2023-04-19T10:05:20.503Z,3.42
2023-04-19T10:06:27.146Z,3.49
2023-04-19T10:08:11.743Z,3.51
2023-04-19T10:09:11.603Z,3.23
2023-04-19T10:10:19.554Z,3.14
2023-04-19T10:11:12.556Z,3.17
2023-04-19T10:12:31.163Z,2.98
2023-04-19T10:13:19.814Z,3.04
2023-04-19T10:14:12.533Z,3.03
2023-04-19T10:15:11.511Z,2.85
2023-04-19T10:16:18.827Z,2.78
2023-04-19T10:17:12.736Z,2.99
2023-04-19T10:18:11.507Z,2.79
2023-04-19T10:19:11.489Z,2.74
2023-04-19T10:20:11.495Z,2.70
2023-04-19T10:21:11.564Z,2.64
2023-04-19T10:22:11.486Z,2.60
2023-04-19T10:23:11.485Z,2.48
2023-04-19T10:24:11.495Z,2.52
2023-04-19T10:25:11.451Z,2.55
2023-04-19T10:26:11.514Z,2.49
2023-04-19T10:27:11.516Z,2.47
2023-04-19T10:28:11.450Z,2.49
2023-04-19T10:29:11.485Z,2.41
2023-04-19T10:30:11.542Z,2.44
2023-04-19T10:31:11.692Z,2.43
2023-04-19T10:32:12.249Z,2.44
2023-04-19T10:33:11.657Z,2.37
2023-04-19T10:34:11.678Z,2.37
2023-04-19T10:35:13.433Z,2.33
2023-04-19T10:36:12.686Z,2.37
2023-04-19T10:37:11.685Z,2.36
2023-04-19T10:38:11.702Z,2.27
2023-04-19T10:39:11.827Z,2.26
2023-04-19T10:40:11.688Z,2.23
2023-04-19T10:41:15.479Z,2.19
2023-04-19T10:42:11.680Z,2.20
2023-04-19T10:43:11.707Z,2.20
2023-04-19T10:44:11.735Z,2.09
2023-04-19T10:45:11.656Z,2.08
2023-04-19T10:46:12.207Z,2.03
2023-04-19T10:47:14.236Z,1.95
2023-04-19T10:48:11.640Z,2.00
2023-04-19T10:49:11.610Z,2.03
2023-04-19T10:50:11.720Z,2.01
2023-04-19T10:51:11.634Z,1.95
2023-04-19T10:52:11.620Z,1.90
2023-04-19T10:53:13.846Z,1.87
2023-04-19T10:54:11.758Z,1.88
2023-04-19T10:55:11.803Z,1.88
2023-04-19T10:56:11.861Z,1.88
2023-04-19T10:57:12.056Z,1.89
2023-04-19T10:58:11.891Z,1.86
2023-04-19T10:59:11.904Z,1.84
2023-04-19T11:00:11.942Z,1.83
2023-04-19T11:01:12.679Z,1.83
2023-04-19T11:02:12.063Z,1.76
2023-04-19T11:03:12.190Z,1.79
2023-04-19T11:04:12.150Z,1.81
2023-04-19T11:05:12.108Z,1.79
2023-04-19T11:06:12.156Z,1.77
2023-04-19T11:07:12.191Z,1.73
2023-04-19T11:08:12.266Z,1.68
2023-04-19T11:09:12.292Z,1.70
2023-04-19T11:10:12.600Z,1.69
2023-04-19T11:11:12.364Z,1.69
2023-04-19T11:12:12.398Z,1.67
2023-04-19T11:13:12.439Z,1.62
2023-04-19T11:14:12.474Z,1.58
2023-04-19T11:15:12.536Z,1.59
2023-04-19T11:16:12.603Z,1.56
2023-04-19T11:17:12.634Z,1.58
2023-04-19T11:18:13.311Z,1.60
2023-04-19T11:19:12.780Z,1.63
2023-04-19T11:20:12.850Z,1.62
2023-04-19T11:21:13.048Z,1.64
2023-04-19T11:22:13.177Z,1.64
2023-04-19T11:23:12.893Z,1.68
2023-04-19T11:24:12.935Z,1.68
2023-04-19T11:25:12.936Z,1.69
2023-04-19T11:26:12.999Z,1.69
2023-04-19T11:27:13.056Z,1.70
2023-04-19T11:28:13.149Z,1.74
2023-04-19T11:29:13.171Z,1.72
2023-04-19T11:30:13.150Z,1.73
2023-04-19T11:31:13.284Z,1.76
2023-04-19T11:32:13.678Z,1.75
2023-04-19T11:33:13.286Z,1.76
2023-04-19T11:34:13.495Z,1.77
2023-04-19T11:35:13.425Z,1.79
2023-04-19T11:36:13.400Z,1.80
2023-04-19T11:37:13.669Z,1.82
2023-04-19T11:38:13.484Z,1.82
2023-04-19T11:39:13.498Z,1.79
2023-04-19T11:40:13.533Z,1.80
2023-04-19T11:41:13.589Z,1.82
2023-04-19T11:42:13.615Z,1.84
2023-04-19T11:43:13.696Z,1.84
2023-04-19T11:44:13.894Z,1.84
2023-04-19T11:45:26.087Z,1.86
2023-04-19T11:46:14.788Z,1.86
2023-04-19T11:47:13.715Z,1.86
2023-04-19T11:48:13.731Z,1.86
2023-04-19T11:49:13.714Z,1.86
2023-04-19T11:50:13.656Z,1.89
2023-04-19T11:51:13.702Z,1.86
2023-04-19T11:52:13.693Z,1.88
2023-04-19T11:53:13.641Z,1.86
2023-04-19T11:54:13.824Z,1.87
2023-04-19T11:55:13.646Z,1.88
2023-04-19T11:56:13.631Z,1.89
2023-04-19T11:57:13.650Z,1.87
2023-04-19T11:58:13.632Z,1.86
2023-04-19T11:59:13.613Z,1.88
2023-04-19T12:00:13.678Z,1.90
2023-04-19T12:01:14.214Z,1.90
2023-04-19T12:02:13.812Z,1.90
2023-04-19T12:03:13.918Z,1.90
2023-04-19T12:04:14.015Z,1.90
2023-04-19T12:05:13.969Z,1.89
2023-04-19T12:06:14.193Z,1.89
2023-04-19T12:07:14.166Z,1.89
2023-04-19T12:08:13.958Z,1.89
2023-04-19T12:09:14.031Z,1.87
2023-04-19T12:10:14.074Z,1.88
2023-04-19T12:11:14.210Z,1.89
2023-04-19T12:12:14.232Z,1.89
2023-04-19T12:13:14.181Z,1.91
2023-04-19T12:14:14.357Z,1.87
2023-04-19T12:15:15.209Z,1.87
2023-04-19T12:16:14.765Z,1.88
2023-04-19T12:17:14.306Z,1.90
2023-04-19T12:18:14.583Z,1.90
2023-04-19T12:19:14.572Z,1.89
2023-04-19T12:20:14.462Z,1.88
2023-04-19T12:21:14.529Z,1.87
2023-04-19T12:22:14.528Z,1.86
2023-04-19T12:23:14.552Z,1.86
2023-04-19T12:24:14.600Z,1.87
2023-04-19T12:25:15.221Z,1.87
2023-04-19T12:26:14.717Z,1.87
2023-04-19T12:27:15.188Z,1.89
2023-04-19T12:28:14.770Z,1.88
2023-04-19T12:29:15.016Z,1.87
2023-04-19T12:30:15.677Z,1.85
2023-04-19T12:31:14.847Z,1.86
2023-04-19T12:32:15.055Z,1.88
2023-04-19T12:33:15.003Z,1.88
2023-04-19T12:34:14.968Z,1.88
2023-04-19T12:35:15.008Z,1.86
2023-04-19T12:36:15.084Z,1.87
2023-04-19T12:37:15.127Z,1.89
2023-04-19T12:38:15.156Z,1.90
2023-04-19T12:39:15.418Z,1.92
2023-04-19T12:40:15.233Z,1.87
2023-04-19T12:41:15.309Z,1.88
2023-04-19T12:42:15.321Z,1.89
2023-04-19T12:43:15.387Z,1.87
2023-04-19T12:44:15.412Z,1.87
2023-04-19T12:45:15.434Z,1.85
2023-04-19T12:46:15.528Z,1.85
2023-04-19T12:47:15.535Z,1.87
2023-04-19T12:48:15.550Z,1.85
2023-04-19T12:49:15.745Z,1.86
2023-04-19T12:50:15.624Z,1.86
2023-04-19T12:51:15.715Z,1.86
2023-04-19T12:52:15.716Z,1.85
2023-04-19T12:53:15.749Z,1.87
2023-04-19T12:54:15.817Z,1.87
2023-04-19T12:55:15.819Z,1.85
2023-04-19T12:56:15.896Z,1.87
2023-04-19T12:57:15.962Z,1.84
2023-04-19T12:58:15.946Z,1.85
2023-04-19T12:59:16.234Z,1.84
2023-04-19T13:00:16.031Z,1.83
2023-04-19T13:01:16.182Z,1.83
2023-04-19T13:02:16.215Z,1.81
2023-04-19T13:03:16.271Z,1.82
2023-04-19T13:04:16.873Z,1.82
2023-04-19T13:05:16.278Z,1.83
2023-04-19T13:06:16.341Z,1.80
2023-04-19T13:07:16.351Z,1.80
2023-04-19T13:08:16.421Z,1.83
2023-04-19T13:09:16.421Z,1.81
2023-04-19T13:10:16.467Z,1.82
2023-04-19T13:11:16.545Z,1.80
2023-04-19T13:12:16.556Z,1.78
2023-04-19T13:13:16.686Z,1.78
2023-04-19T13:14:16.778Z,1.79
2023-04-19T13:15:16.666Z,1.79
2023-04-19T13:16:16.813Z,1.78
2023-04-19T13:17:16.762Z,1.78
2023-04-19T13:18:16.814Z,1.78
2023-04-19T13:19:16.843Z,1.79
2023-04-19T13:20:16.900Z,1.78
2023-04-19T13:21:16.938Z,1.79
2023-04-19T13:22:16.996Z,1.78
2023-04-19T13:23:17.056Z,1.79
2023-04-19T13:24:17.277Z,1.80